Time;durP1;ratioP1;P1;durP2;ratioP2;P2;SDS_P1;SDS_P2;PMS_P1;PMS_P2;Temp;Humidity;BMP_temperature;BMP_pressure;BME280_temperature;BME280_humidity;BME280_pressure;Samples;Min_cycle;Max_cycle;Signal;HPM_P1;HPM_P2
2021/03/08 00:01:25;;;;;;;;;;;4.40;99.90;;;2.23;91.69;95822.44;10319709;28;1964;-82
2021/03/08 00:06:27;;;;;;;;;;;4.40;99.90;;;2.04;90.67;95832.22;10325230;28;1723;-83
2021/03/08 00:11:29;;;;;;;;;;;3.20;99.90;;;2.00;91.42;95852.22;10343219;28;1781;-82
2021/03/08 00:16:30;;;;;;;;;;;3.50;99.90;;;2.08;90.47;95849.28;10315899;28;1864;-80
2021/03/08 00:21:33;;;;;;;;;;;3.60;99.90;;;2.12;89.14;95845.19;10307812;28;2039;-81
2021/03/08 00:26:34;;;;;;;;;;;4.30;99.90;;;2.15;88.44;95842.06;10318088;28;1837;-82
2021/03/08 00:31:48;;;;;;;;;;;3.20;99.90;;;2.19;86.88;95833.69;10320794;28;1972;-83
2021/03/08 00:36:50;;;;;;;;;;;3.20;99.90;;;2.17;86.17;95821.47;10311880;28;2075;-80
2021/03/08 00:41:52;;;;;;;;;;;3.50;99.90;;;1.79;85.94;95826.91;10326807;28;2086;-82
2021/03/08 00:46:54;;;;;;;;;;;3.90;99.90;;;1.51;87.09;95840.56;10296301;28;1996;-82
2021/03/08 00:51:56;;;;;;;;;;;3.70;99.90;;;1.30;87.58;95847.03;10328830;28;1901;-82
2021/03/08 00:56:58;;;;;;;;;;;2.70;99.90;;;1.21;87.81;95850.16;10337591;28;2006;-79
2021/03/08 01:02:09;;;;;;;;;;;2.40;99.90;;;1.21;86.45;95829.81;10335543;28;1899;-82
2021/03/08 01:07:11;;;;;;;;;;;3.20;99.90;;;1.00;86.16;95830.91;10329248;28;2300;-81
2021/03/08 01:12:13;;;;;;;;;;;2.70;99.90;;;0.80;87.03;95820.44;10299806;28;1651;-80
2021/03/08 01:17:15;;;;;;;;;;;2.60;99.90;;;0.65;87.69;95811.97;10319326;28;2069;-82
2021/03/08 01:22:17;;;;;;;;;;;3.60;99.90;;;0.52;87.95;95819.97;10337822;28;1999;-83
2021/03/08 01:27:18;;;;;;;;;;;2.50;99.90;;;0.46;89.21;95818.16;10299026;28;1927;-83
2021/03/08 01:32:28;;;;;;;;;;;2.10;99.90;;;0.38;90.05;95827.13;10310604;28;1980;-83
2021/03/08 01:37:30;;;;;;;;;;;1.60;99.90;;;0.46;91.49;95808.38;10287544;28;2004;-83
2021/03/08 01:42:31;;;;;;;;;;;1.60;99.90;;;0.63;92.70;95811.34;10299514;28;1995;-83
2021/03/08 01:47:33;;;;;;;;;;;2.40;99.90;;;0.71;93.03;95816.44;10308749;28;1982;-82
2021/03/08 01:52:35;;;;;;;;;;;1.80;99.90;;;0.71;92.58;95805.03;10311350;28;1993;-81
2021/03/08 01:57:37;;;;;;;;;;;3.00;99.90;;;0.62;92.34;95803.63;10313340;28;1876;-79
2021/03/08 02:02:54;;;;;;;;;;;1.80;99.90;;;0.46;92.07;95797.81;10294668;28;1957;-84
2021/03/08 02:07:56;;;;;;;;;;;1.70;99.90;;;0.39;92.11;95794.38;10316714;28;1995;-83
2021/03/08 02:12:58;;;;;;;;;;;1.60;99.90;;;0.47;92.11;95799.44;10311145;28;1880;-81
2021/03/08 02:17:59;;;;;;;;;;;2.10;99.90;;;0.71;92.15;95789.16;10308122;28;1833;-83
2021/03/08 02:23:04;;;;;;;;;;;1.70;99.90;;;0.82;91.82;95780.53;10285830;28;1970;-82
2021/03/08 02:28:06;;;;;;;;;;;2.50;99.90;;;0.80;91.40;95772.00;10298816;28;1986;-82
2021/03/08 02:33:17;;;;;;;;;;;2.50;99.90;;;0.76;89.70;95770.78;10319951;28;1900;-83
2021/03/08 02:38:19;;;;;;;;;;;1.90;99.90;;;0.71;89.69;95774.09;10354223;28;1620;-83
2021/03/08 02:43:21;;;;;;;;;;;1.80;99.90;;;0.61;89.64;95768.44;10345855;28;2200;-83
2021/03/08 02:48:22;;;;;;;;;;;1.80;99.90;;;0.40;89.35;95774.84;10346467;28;1952;-81
2021/03/08 02:53:25;;;;;;;;;;;1.60;99.90;;;0.29;90.03;95770.19;10324233;28;1853;-80
2021/03/08 02:58:27;;;;;;;;;;;1.50;99.90;;;0.15;90.36;95769.44;10330172;28;2104;-82
2021/03/08 03:03:42;;;;;;;;;;;1.40;99.90;;;-0.03;90.58;95772.75;10311360;28;2014;-82
2021/03/08 03:08:44;;;;;;;;;;;2.80;99.90;;;-0.12;90.88;95768.72;10344005;28;2071;-82
2021/03/08 03:13:45;;;;;;;;;;;1.10;99.90;;;-0.23;91.24;95771.97;10336329;28;1960;-82
2021/03/08 03:18:47;;;;;;;;;;;1.40;99.90;;;-0.29;91.57;95775.44;10316773;28;2076;-83
2021/03/08 03:23:49;;;;;;;;;;;1.50;99.90;;;-0.38;91.87;95781.94;10333807;28;1912;-81
2021/03/08 03:28:51;;;;;;;;;;;0.90;99.90;;;-0.42;92.69;95788.66;10330191;28;2233;-81
2021/03/08 03:34:04;;;;;;;;;;;0.80;99.90;;;-0.43;92.73;95792.31;10324072;28;2055;-82
2021/03/08 03:39:07;;;;;;;;;;;0.70;99.90;;;-0.36;93.43;95795.78;10314200;28;2117;-83
2021/03/08 03:44:09;;;;;;;;;;;0.80;99.90;;;-0.32;93.47;95802.25;10333124;28;2187;-83
2021/03/08 03:49:10;;;;;;;;;;;2.30;99.90;;;-0.21;91.98;95795.53;10324426;28;2044;-83
2021/03/08 03:54:12;;;;;;;;;;;0.80;99.90;;;-0.27;91.86;95803.25;10326310;28;2251;-83
2021/03/08 03:59:14;;;;;;;;;;;0.80;99.90;;;-0.28;91.95;95795.56;10315436;28;2120;-84
2021/03/08 04:04:28;;;;;;;;;;;2.50;99.90;;;-0.39;92.12;95807.53;10356210;28;1962;-84
2021/03/08 04:09:31;;;;;;;;;;;1.70;99.90;;;-0.37;92.19;95808.16;10329642;28;1952;-84
2021/03/08 04:14:32;;;;;;;;;;;1.80;99.90;;;-0.40;91.56;95815.66;10323732;28;2151;-84
2021/03/08 04:19:35;;;;;;;;;;;0.80;99.90;;;-0.51;90.86;95816.28;10325531;28;1996;-83
2021/03/08 04:24:36;;;;;;;;;;;0.70;99.90;;;-0.61;90.69;95812.22;10308104;28;2132;-83
2021/03/08 04:29:38;;;;;;;;;;;0.60;99.90;;;-0.63;89.20;95811.63;10338410;28;2000;-82
2021/03/08 04:34:49;;;;;;;;;;;0.60;99.90;;;-0.78;89.04;95807.53;10338807;28;2130;-83
2021/03/08 04:39:51;;;;;;;;;;;0.40;99.90;;;-0.99;89.27;95819.09;10332218;28;1973;-83
2021/03/08 04:44:53;;;;;;;;;;;0.20;99.90;;;-1.10;89.31;95825.75;10344040;28;2056;-83
2021/03/08 04:49:55;;;;;;;;;;;0.20;99.90;;;-1.19;90.43;95825.13;10325583;28;2019;-84
2021/03/08 04:54:57;;;;;;;;;;;0.00;99.90;;;-1.26;90.48;95832.22;10340936;28;2147;-83
2021/03/08 04:59:59;;;;;;;;;;;-0.10;99.90;;;-1.34;90.56;95827.09;10318579;28;2016;-84
2021/03/08 05:05:12;;;;;;;;;;;0.00;99.90;;;-1.32;90.88;95825.09;10307968;28;2092;-85
2021/03/08 05:10:14;;;;;;;;;;;0.00;99.90;;;-1.36;90.54;95815.94;10309531;28;1957;-85
2021/03/08 05:15:16;;;;;;;;;;;-0.10;99.90;;;-1.23;91.42;95833.63;10331863;28;2177;-84
2021/03/08 05:20:18;;;;;;;;;;;-0.10;99.90;;;-1.39;91.10;95825.06;10305780;28;2144;-83
2021/03/08 05:25:20;;;;;;;;;;;0.00;99.90;;;-1.47;90.90;95832.31;10334364;28;2012;-82
2021/03/08 05:30:22;;;;;;;;;;;-0.20;99.90;;;-1.58;91.59;95832.91;10317982;28;2120;-84
2021/03/08 05:35:38;;;;;;;;;;;1.00;99.90;;;-1.37;90.20;95843.31;10303939;28;1890;-83
2021/03/08 05:40:40;;;;;;;;;;;-0.30;99.90;;;-1.37;87.06;95853.88;10324485;28;2104;-83
2021/03/08 05:45:42;;;;;;;;;;;-0.20;99.90;;;-1.44;86.07;95855.66;10313772;28;1949;-82
2021/03/08 05:50:44;;;;;;;;;;;0.00;99.90;;;-1.46;86.86;95855.06;10332706;28;2020;-84
2021/03/08 05:55:46;;;;;;;;;;;-0.40;99.90;;;-1.53;86.83;95856.84;10328046;28;1857;-84
2021/03/08 06:00:48;;;;;;;;;;;0.70;99.90;;;-1.59;87.44;95857.63;10307307;28;2000;-85
2021/03/08 06:06:00;;;;;;;;;;;-0.40;99.90;;;-1.67;84.43;95869.13;10313035;28;1343;-84
2021/03/08 06:11:04;;;;;;;;;;;-0.50;99.90;;;-1.78;83.62;95873.16;10316578;28;2038;-84
2021/03/08 06:16:06;;;;;;;;;;;-0.30;99.90;;;-1.79;84.42;95876.78;10325153;28;2044;-82
2021/03/08 06:21:08;;;;;;;;;;;-0.70;99.90;;;-1.79;85.03;95887.31;10296990;28;2099;-83
2021/03/08 06:26:10;;;;;;;;;;;-0.10;99.90;;;-1.91;83.42;95891.50;10330636;28;2033;-82
2021/03/08 06:31:12;;;;;;;;;;;0.00;99.90;;;-1.89;84.33;95896.59;10329395;28;2087;-82
2021/03/08 06:36:27;;;;;;;;;;;-0.80;99.90;;;-1.67;84.48;95900.75;10335011;28;2108;-81
2021/03/08 06:41:29;;;;;;;;;;;-0.80;99.90;;;-1.61;82.18;95900.00;10307251;28;2093;-83
2021/03/08 06:46:32;;;;;;;;;;;-0.40;99.90;;;-1.49;81.70;95903.72;10315184;28;2001;-84
2021/03/08 06:51:36;;;;;;;;;;;-0.60;99.90;;;-1.42;80.76;95922.19;10317419;28;2038;-86
2021/03/08 06:56:38;;;;;;;;;;;-0.50;99.90;;;-1.30;81.15;95933.00;10296956;28;1968;-84
2021/03/08 07:01:40;;;;;;;;;;;1.20;99.90;;;-1.14;79.26;95938.78;10298786;28;2077;-84
2021/03/08 07:06:51;;;;;;;;;;;-0.30;99.90;;;-1.02;79.00;95935.56;10289352;28;2060;-82
2021/03/08 07:11:52;;;;;;;;;;;-0.10;99.90;;;-1.02;78.44;95927.66;10314426;28;2069;-83
2021/03/08 07:16:54;;;;;;;;;;;-0.10;99.90;;;-1.10;79.55;95944.47;10314683;28;1923;-85
2021/03/08 07:21:57;;;;;;;;;;;-0.10;99.90;;;-0.93;80.48;95942.31;10302958;28;1980;-84
2021/03/08 07:27:03;;;;;;;;;;;0.80;99.90;;;-0.75;78.20;95942.56;10311051;28;2040;-80
2021/03/08 07:32:05;;;;;;;;;;;0.20;99.90;;;-0.69;77.75;95936.50;10303704;28;1991;-81
2021/03/08 07:37:14;;;;;;;;;;;-0.10;99.90;;;-0.60;77.20;95950.31;10282744;28;2009;-81
2021/03/08 07:42:16;;;;;;;;;;;0.30;99.90;;;-0.53;76.39;95935.31;10286186;28;2208;-81
2021/03/08 07:47:17;;;;;;;;;;;0.30;99.90;;;-0.32;75.11;95945.72;10293790;28;1896;-82
2021/03/08 07:52:19;;;;;;;;;;;0.50;99.90;;;-0.19;76.40;95947.56;10318066;28;1947;-81
2021/03/08 07:57:21;;;;;;;;;;;0.60;99.90;;;-0.09;73.38;95958.53;10316072;28;1990;-83
2021/03/08 08:02:32;;;;;;;;;;;0.90;99.90;;;-0.15;73.27;95959.34;10309567;28;1906;-82
2021/03/08 08:07:36;;;;;;;;;;;0.90;99.90;;;-0.13;72.79;95965.22;10301047;28;2262;-82
2021/03/08 08:12:38;;;;;;;;;;;0.90;99.90;;;-0.04;73.63;95964.03;10311763;28;2007;-82
2021/03/08 08:17:40;;;;;;;;;;;0.80;99.90;;;0.17;72.72;95970.94;10311050;28;2030;-82
2021/03/08 08:22:42;;;;;;;;;;;1.10;99.90;;;0.26;71.96;95963.63;10312561;28;1887;-83
2021/03/08 08:27:44;;;;;;;;;;;1.10;99.90;;;0.35;73.43;95970.34;10312175;28;2003;-80
2021/03/08 08:32:46;;;;;;;;;;;1.20;99.90;;;0.61;70.80;95973.97;10305951;28;1940;-80
2021/03/08 08:37:59;;;;;;;;;;;1.60;99.90;;;0.76;70.43;95970.09;10329074;28;1938;-83
2021/03/08 08:43:03;;;;;;;;;;;1.60;99.90;;;0.87;71.04;95965.97;10315464;28;2006;-82
2021/03/08 08:48:05;;;;;;;;;;;1.80;99.90;;;1.16;69.48;95967.31;10321800;28;2079;-81
2021/03/08 08:53:08;;;;;;;;;;;2.00;99.90;;;1.40;65.03;95963.13;10291975;28;2041;-82
2021/03/08 08:58:10;;;;;;;;;;;2.30;99.90;;;1.55;65.14;95966.31;10298952;28;2018;-81
2021/03/08 09:03:12;;;;;;;;;;;2.40;99.90;;;1.78;63.47;95964.94;10291952;28;1969;-83
2021/03/08 09:08:22;;;;;;;;;;;2.60;99.90;;;1.90;63.63;95948.13;10313148;28;1979;-82
2021/03/08 09:13:26;;;;;;;;;;;3.00;99.90;;;2.04;63.67;95959.47;10310667;28;1995;-80
2021/03/08 09:18:28;;;;;;;;;;;2.90;99.90;;;1.84;65.05;95954.28;10321325;28;2029;-81
2021/03/08 09:23:30;;;;;;;;;;;3.00;99.90;;;1.95;64.47;95966.06;10307807;28;1959;-81
2021/03/08 09:28:32;;;;;;;;;;;3.00;99.90;;;1.88;64.39;95962.63;10310476;28;1861;-81
2021/03/08 09:33:34;;;;;;;;;;;3.60;99.90;;;2.19;60.22;95966.28;10329986;28;2152;-81
2021/03/08 09:38:49;;;;;;;;;;;3.10;99.90;;;2.25;54.41;95960.13;10305087;28;1992;-80
2021/03/08 09:43:53;;;;;;;;;;;4.10;98.50;;;2.39;56.72;95959.78;10315164;28;1915;-79
2021/03/08 09:48:55;;;;;;;;;;;3.40;96.70;;;2.54;57.82;95955.97;10311193;28;1845;-82
2021/03/08 09:54:02;;;;;;;;;;;3.60;97.50;;;2.49;59.22;95961.97;10310278;28;1863;-80
2021/03/08 09:59:14;;;;;;;;;;;3.50;98.90;;;2.69;58.25;95967.91;10292951;28;2065;-81
2021/03/08 10:04:17;;;;;;;;;;;3.60;97.60;;;2.71;59.71;95975.63;10311156;28;1989;-82
2021/03/08 10:09:20;;;;;;;;;;;3.60;98.60;;;2.95;59.56;95964.16;10304320;28;2107;-81
2021/03/08 10:14:22;;;;;;;;;;;5.10;99.00;;;2.90;59.42;95968.50;10310672;28;2065;-80
2021/03/08 10:19:24;;;;;;;;;;;3.90;97.10;;;3.05;58.94;95960.16;10320564;28;2009;-80
2021/03/08 10:24:26;;;;;;;;;;;4.00;96.60;;;3.51;56.98;95959.63;10335785;28;2092;-81
2021/03/08 10:29:28;;;;;;;;;;;4.30;96.20;;;3.37;58.28;95968.78;10329612;28;1781;-82
2021/03/08 10:34:40;;;;;;;;;;;4.40;95.20;;;3.52;56.83;95966.56;10328587;28;2000;-81
2021/03/08 10:39:52;;;;;;;;;;;5.50;95.00;;;3.61;59.54;95967.03;10313842;28;1977;-81
2021/03/08 10:44:54;;;;;;;;;;;4.60;96.50;;;3.74;57.92;95969.53;10341791;28;2037;-81
2021/03/08 10:55:18;;;;;;;;;;;4.80;92.70;;;3.77;56.37;95964.56;10314668;28;2050;-79
2021/03/08 11:00:35;;;;;;;;;;;4.90;91.10;;;3.56;55.48;95966.91;10286943;28;2079;-81
2021/03/08 11:05:39;;;;;;;;;;;4.60;89.50;;;3.18;56.99;95963.50;10311203;28;1971;-82
2021/03/08 11:10:42;;;;;;;;;;;4.50;90.30;;;3.35;55.88;95939.78;10321281;28;2014;-83
2021/03/08 11:15:53;;;;;;;;;;;4.40;91.00;;;3.57;55.87;95948.09;10320550;28;2050;-82
2021/03/08 11:21:00;;;;;;;;;;;5.30;91.00;;;3.70;57.11;95947.91;10312058;28;2164;-81
2021/03/08 11:26:05;;;;;;;;;;;4.80;91.30;;;3.75;54.43;95956.03;10309718;28;1921;-81
2021/03/08 11:31:07;;;;;;;;;;;4.70;88.50;;;4.14;56.70;95961.78;10314068;28;1996;-79
2021/03/08 11:36:09;;;;;;;;;;;5.10;89.80;;;4.34;56.49;95954.31;10324345;28;1999;-81
2021/03/08 11:41:11;;;;;;;;;;;5.70;90.20;;;4.65;55.21;95955.03;10335798;28;2155;-84
2021/03/08 11:46:13;;;;;;;;;;;5.50;89.60;;;5.01;51.48;95945.13;10328108;28;2012;-83
2021/03/08 11:51:19;;;;;;;;;;;5.90;86.80;;;4.91;52.39;95942.28;10329315;28;2451;-81
2021/03/08 11:56:22;;;;;;;;;;;5.90;85.60;;;4.84;49.12;95953.84;10338014;28;1399;-87
2021/03/08 12:01:24;;;;;;;;;;;6.20;81.90;;;4.49;50.82;95932.53;10317890;28;2110;-80
2021/03/08 12:06:26;;;;;;;;;;;5.80;80.80;;;4.52;49.37;95923.31;10342034;28;1889;-80
2021/03/08 12:11:28;;;;;;;;;;;5.50;81.10;;;4.47;49.06;95917.84;10334313;28;2297;-82
2021/03/08 12:16:31;;;;;;;;;;;5.50;80.10;;;4.67;51.13;95915.66;10285788;28;2167;-83
2021/03/08 12:21:33;;;;;;;;;;;6.00;81.00;;;4.69;49.59;95902.09;10301307;28;2356;-83
2021/03/08 12:26:35;;;;;;;;;;;5.70;79.60;;;4.99;50.27;95899.28;10317880;28;1812;-83
2021/03/08 12:31:38;;;;;;;;;;;5.80;81.40;;;5.19;48.98;95897.00;10291553;28;1939;-83
2021/03/08 12:36:40;;;;;;;;;;;6.50;79.70;;;5.14;47.47;95887.06;10295869;28;2040;-83
2021/03/08 12:41:42;;;;;;;;;;;6.30;78.10;;;4.91;47.00;95900.47;10297096;28;2044;-82
2021/03/08 12:46:44;;;;;;;;;;;6.10;76.30;;;4.72;47.13;95891.81;10296761;28;2080;-83
2021/03/08 12:51:46;;;;;;;;;;;5.90;75.90;;;4.73;48.02;95888.09;10276891;28;2063;-83
2021/03/08 12:56:48;;;;;;;;;;;6.70;77.10;;;4.73;47.10;95887.28;10294797;28;2115;-81
2021/03/08 13:01:50;;;;;;;;;;;5.80;75.40;;;4.64;46.07;95878.00;10282733;28;2083;-80
2021/03/08 13:06:56;;;;;;;;;;;5.80;74.40;;;4.87;45.59;95872.66;10295847;28;2201;-80
2021/03/08 13:11:58;;;;;;;;;;;5.80;74.20;;;5.09;46.81;95860.34;10299050;28;2090;-81
2021/03/08 13:17:00;;;;;;;;;;;6.00;74.80;;;5.16;44.21;95862.88;10304770;28;2030;-84
2021/03/08 13:22:05;;;;;;;;;;;6.90;72.90;;;5.03;45.53;95855.16;10313610;28;2070;-86
2021/03/08 13:27:08;;;;;;;;;;;6.10;72.40;;;4.94;47.03;95851.22;10304410;28;2058;-82
2021/03/08 13:32:10;;;;;;;;;;;6.00;73.70;;;5.08;47.11;95848.03;10320316;28;2081;-83
2021/03/08 13:37:12;;;;;;;;;;;6.20;74.00;;;5.12;45.02;95853.72;10298557;28;2027;-82
2021/03/08 13:42:15;;;;;;;;;;;6.20;72.50;;;5.18;45.25;95854.63;10309869;28;2063;-83
2021/03/08 13:47:18;;;;;;;;;;;6.20;72.70;;;5.16;45.71;95849.53;10315132;28;2185;-81
2021/03/08 13:52:21;;;;;;;;;;;6.20;72.70;;;5.20;45.54;95849.84;10297700;28;2083;-81
2021/03/08 13:57:23;;;;;;;;;;;6.20;72.20;;;5.23;43.63;95855.53;10330276;28;1979;-81
2021/03/08 14:02:25;;;;;;;;;;;6.20;71.10;;;5.02;42.49;95854.31;10324285;28;2086;-84
2021/03/08 14:07:27;;;;;;;;;;;6.20;69.10;;;5.00;45.04;95850.28;10327557;28;1844;-84
2021/03/08 14:12:35;;;;;;;;;;;6.30;70.40;;;5.00;43.06;95850.28;10332304;28;2030;-83
2021/03/08 14:17:38;;;;;;;;;;;6.10;68.90;;;4.93;43.24;95849.59;10314162;28;1984;-83
2021/03/08 14:22:40;;;;;;;;;;;6.00;69.00;;;5.02;43.66;95843.66;10323268;28;1951;-84
2021/03/08 14:27:42;;;;;;;;;;;6.00;69.40;;;4.95;41.70;95837.66;10330872;28;1983;-84
2021/03/08 14:32:44;;;;;;;;;;;6.10;67.70;;;5.02;43.24;95834.84;10294438;28;2074;-82
2021/03/08 14:38:05;;;;;;;;;;;6.00;68.60;;;4.98;43.61;95828.41;10303918;28;2007;-83
2021/03/08 14:43:07;;;;;;;;;;;6.10;69.10;;;5.00;41.95;95823.63;10284896;28;2156;-84
2021/03/08 14:48:09;;;;;;;;;;;6.00;67.50;;;4.88;41.44;95813.81;10297719;28;2109;-82
2021/03/08 14:53:11;;;;;;;;;;;6.00;67.10;;;4.79;42.06;95811.78;10314891;28;1992;-83
2021/03/08 14:58:14;;;;;;;;;;;5.80;67.10;;;4.80;42.97;95808.88;10318708;28;2059;-84
2021/03/08 15:03:16;;;;;;;;;;;5.80;67.60;;;4.85;42.08;95806.31;10302633;28;2070;-84
2021/03/08 15:08:17;;;;;;;;;;;6.10;67.10;;;4.81;39.98;95818.47;10319546;28;1916;-84
2021/03/08 15:13:19;;;;;;;;;;;6.30;65.20;;;4.73;40.20;95813.53;10336996;28;2052;-85
2021/03/08 15:18:21;;;;;;;;;;;6.40;64.80;;;4.56;40.04;95816.09;10346844;28;2207;-82
2021/03/08 15:23:23;;;;;;;;;;;5.70;64.20;;;4.52;40.57;95816.81;10308970;28;1945;-86
2021/03/08 15:28:25;;;;;;;;;;;5.60;64.30;;;4.55;38.82;95816.34;10315101;28;2053;-84
2021/03/08 15:33:27;;;;;;;;;;;5.60;63.20;;;4.57;39.88;95814.25;10318342;28;1962;-85
2021/03/08 15:38:30;;;;;;;;;;;5.60;63.90;;;4.52;37.76;95812.31;10304273;28;1994;-85
2021/03/08 15:43:42;;;;;;;;;;;6.10;61.60;;;4.50;39.19;95810.91;10327162;28;2065;-82
2021/03/08 15:48:44;;;;;;;;;;;5.60;62.20;;;4.45;37.57;95811.59;10327215;28;2269;-83
2021/03/08 15:53:47;;;;;;;;;;;5.50;61.20;;;4.34;38.68;95805.28;10319091;28;1923;-85
2021/03/08 15:58:49;;;;;;;;;;;5.40;61.60;;;4.33;38.33;95819.63;10324489;28;2350;-83
2021/03/08 16:03:51;;;;;;;;;;;6.50;62.50;;;4.34;40.04;95826.56;10344270;28;2249;-84
2021/03/08 16:08:53;;;;;;;;;;;5.30;63.20;;;4.28;41.26;95821.34;10312343;28;2377;-84
2021/03/08 16:14:05;;;;;;;;;;;5.40;64.20;;;4.26;46.10;95829.56;10285008;28;2236;-86
2021/03/08 16:19:06;;;;;;;;;;;5.30;68.40;;;4.16;47.55;95824.03;10329934;28;1977;-85
2021/03/08 16:24:09;;;;;;;;;;;6.20;70.50;;;4.09;48.73;95822.53;10322950;28;1903;-82
2021/03/08 16:29:11;;;;;;;;;;;5.40;71.70;;;4.11;47.98;95823.91;10328049;28;1936;-84
2021/03/08 16:34:13;;;;;;;;;;;6.60;72.10;;;4.06;47.33;95827.25;10329652;28;1847;-84
2021/03/08 16:39:15;;;;;;;;;;;5.80;71.20;;;3.96;47.36;95834.19;10313361;28;1994;-84
2021/03/08 16:44:29;;;;;;;;;;;5.10;71.20;;;3.89;47.86;95833.50;10302338;28;1891;-84
2021/03/08 16:49:32;;;;;;;;;;;5.40;71.60;;;3.73;47.87;95830.47;10330734;28;1884;-81
2021/03/08 16:54:34;;;;;;;;;;;5.00;71.10;;;3.60;47.89;95835.97;10340356;28;1864;-82
2021/03/08 16:59:37;;;;;;;;;;;5.40;71.10;;;3.51;48.45;95835.50;10316710;28;1688;-84
2021/03/08 17:04:39;;;;;;;;;;;4.70;71.40;;;3.30;48.09;95827.22;10320972;28;1883;-83
2021/03/08 17:09:42;;;;;;;;;;;5.70;71.70;;;3.27;47.68;95833.00;10296906;28;1844;-84
2021/03/08 17:14:52;;;;;;;;;;;4.50;71.30;;;3.12;48.99;95841.41;10319770;28;1770;-85
2021/03/08 17:19:54;;;;;;;;;;;4.30;72.40;;;3.02;50.15;95841.09;10338235;28;2014;-84
2021/03/08 17:24:56;;;;;;;;;;;4.20;72.30;;;2.86;50.70;95845.19;10328886;28;2113;-83
2021/03/08 17:29:58;;;;;;;;;;;4.10;73.20;;;2.77;49.87;95852.63;10334008;28;1874;-85
2021/03/08 17:35:00;;;;;;;;;;;4.00;73.10;;;2.69;50.21;95859.06;10333099;28;2095;-86
2021/03/08 17:40:17;;;;;;;;;;;3.80;73.30;;;2.77;49.91;95862.44;10300787;28;2117;-86
2021/03/08 17:46:01;;;;;;;;;;;4.70;73.90;;;2.74;50.62;95863.72;10265137;29;1837;-89
2021/03/08 17:52:02;;;;;;;;;;;3.90;74.00;;;2.67;50.30;95879.72;10259573;28;2217;-88
2021/03/08 17:57:58;;;;;;;;;;;4.60;74.00;;;2.50;50.89;95878.66;10133555;29;1963;-88
2021/03/08 18:03:25;;;;;;;;;;;;;;;;;;;;;
2021/03/08 18:08:48;;;;;;;;;;;4.70;76.20;;;2.64;54.30;95880.16;10233597;29;2045;-90
2021/03/08 18:20:09;;;;;;;;;;;3.70;79.20;;;2.50;57.84;95894.59;10214349;29;1875;-84
2021/03/08 18:25:11;;;;;;;;;;;4.70;81.60;;;2.42;58.69;95897.53;10204636;29;2328;-84
2021/03/08 18:30:12;;;;;;;;;;;3.60;81.90;;;2.39;61.40;95895.31;10195337;29;2329;-86
2021/03/08 18:35:14;;;;;;;;;;;4.20;84.50;;;2.23;63.23;95899.34;10179839;29;1298;-84
2021/03/08 18:40:17;;;;;;;;;;;3.40;85.90;;;2.16;64.59;95899.41;10173077;29;1907;-84
2021/03/08 18:45:19;;;;;;;;;;;3.50;88.20;;;2.00;65.46;95899.94;10161420;29;1894;-85
2021/03/08 18:50:22;;;;;;;;;;;3.10;89.40;;;1.89;66.86;95904.09;10176942;29;1993;-84
2021/03/08 18:55:23;;;;;;;;;;;3.80;91.10;;;1.83;67.63;95917.41;10239203;28;2114;-84
2021/03/08 19:00:25;;;;;;;;;;;3.00;92.20;;;1.75;68.15;95920.31;10305743;28;1958;-84
2021/03/08 19:05:27;;;;;;;;;;;2.90;93.10;;;1.70;69.06;95920.16;10304715;28;1678;-84
2021/03/08 19:10:29;;;;;;;;;;;3.20;94.40;;;1.63;69.56;95930.78;10320386;28;1567;-84
2021/03/08 19:15:32;;;;;;;;;;;3.50;95.60;;;1.54;69.99;95932.88;10331418;28;1128;-85
2021/03/08 19:20:34;;;;;;;;;;;3.60;96.20;;;1.39;70.96;95929.69;10303867;28;1983;-83
2021/03/08 19:25:36;;;;;;;;;;;4.40;97.70;;;1.32;71.36;95928.94;10340509;28;1469;-81
2021/03/08 19:30:38;;;;;;;;;;;2.40;97.30;;;1.19;71.40;95935.09;10348936;28;1368;-83
2021/03/08 19:35:40;;;;;;;;;;;3.00;98.30;;;1.13;71.87;95935.13;10339187;28;1549;-84
2021/03/08 19:40:42;;;;;;;;;;;3.30;98.90;;;1.06;72.05;95938.63;10340887;28;1899;-83
2021/03/08 19:45:44;;;;;;;;;;;2.20;99.00;;;0.98;72.58;95938.84;10306801;28;1563;-83
2021/03/08 19:50:46;;;;;;;;;;;2.10;99.80;;;0.87;72.93;95939.50;10333137;28;1558;-81
2021/03/08 19:55:48;;;;;;;;;;;2.20;99.90;;;0.75;73.59;95933.22;10328457;28;1320;-84
2021/03/08 20:00:50;;;;;;;;;;;2.70;99.90;;;0.69;74.19;95934.06;10301673;28;1887;-83
2021/03/08 20:05:52;;;;;;;;;;;3.10;99.90;;;0.62;74.43;95936.72;10298397;28;1997;-84
2021/03/08 20:10:53;;;;;;;;;;;2.80;99.90;;;0.58;75.37;95932.06;10283586;28;2053;-85
2021/03/08 20:15:55;;;;;;;;;;;1.70;99.90;;;0.50;75.52;95930.44;10283494;28;1950;-84
2021/03/08 20:20:57;;;;;;;;;;;1.60;99.90;;;0.41;75.78;95921.91;10325873;28;2007;-83
2021/03/08 20:25:59;;;;;;;;;;;1.50;99.90;;;0.38;76.12;95938.22;10290969;28;2025;-82
2021/03/08 20:31:03;;;;;;;;;;;1.80;99.90;;;0.29;76.29;95928.84;10304705;28;1970;-83
2021/03/08 20:36:05;;;;;;;;;;;3.40;99.90;;;0.22;76.94;95934.13;10297767;28;2032;-83
2021/03/08 20:41:07;;;;;;;;;;;2.30;99.90;;;0.12;77.24;95927.63;10298986;28;1906;-84
2021/03/08 20:46:09;;;;;;;;;;;2.80;99.90;;;0.10;77.78;95930.47;10320949;28;1208;-85
2021/03/08 20:51:11;;;;;;;;;;;1.20;99.90;;;0.05;78.17;95924.19;10327153;28;1527;-85
2021/03/08 20:56:13;;;;;;;;;;;1.20;99.90;;;-0.02;78.26;95925.00;10309135;28;2049;-84
2021/03/08 21:01:14;;;;;;;;;;;1.10;99.90;;;-0.11;78.76;95925.41;10326723;28;1985;-84
2021/03/08 21:06:16;;;;;;;;;;;3.10;99.90;;;-0.11;78.64;95920.94;10319590;28;1668;-83
2021/03/08 21:11:18;;;;;;;;;;;1.00;99.90;;;-0.14;79.45;95917.88;10293426;28;1842;-83
2021/03/08 21:16:20;;;;;;;;;;;1.00;99.90;;;-0.21;79.97;95917.06;10295827;28;1605;-82
2021/03/08 21:21:22;;;;;;;;;;;1.10;99.90;;;-0.21;79.53;95923.16;10322174;28;1964;-84
2021/03/08 21:26:24;;;;;;;;;;;0.90;99.90;;;-0.24;80.10;95923.59;10306708;28;1629;-83
2021/03/08 21:31:32;;;;;;;;;;;1.50;99.90;;;-0.36;80.48;95919.91;10324124;28;1959;-84
2021/03/08 21:36:34;;;;;;;;;;;0.80;99.90;;;-0.45;81.60;95913.19;10301349;28;1963;-82
2021/03/08 21:41:36;;;;;;;;;;;0.70;99.90;;;-0.45;81.33;95913.19;10310545;28;1994;-84
2021/03/08 21:46:38;;;;;;;;;;;2.00;99.90;;;-0.43;81.60;95911.97;10322365;28;1983;-84
2021/03/08 21:51:40;;;;;;;;;;;2.00;99.90;;;-0.57;81.59;95908.50;10286326;28;1978;-83
2021/03/08 21:56:41;;;;;;;;;;;0.70;99.90;;;-0.69;82.16;95910.09;10317199;28;2439;-84
2021/03/08 22:01:43;;;;;;;;;;;0.50;99.90;;;-0.74;82.95;95907.25;10307600;28;1887;-84
2021/03/08 22:06:45;;;;;;;;;;;0.50;99.90;;;-0.68;82.87;95910.91;10290920;28;1998;-84
2021/03/08 22:11:47;;;;;;;;;;;0.40;99.90;;;-0.78;82.93;95913.94;10288963;28;2041;-84
2021/03/08 22:16:49;;;;;;;;;;;0.40;99.90;;;-0.83;83.65;95904.00;10294340;28;2005;-82
2021/03/08 22:21:51;;;;;;;;;;;1.70;99.90;;;-0.88;83.91;95897.69;10266706;28;2063;-81
2021/03/08 22:26:53;;;;;;;;;;;0.30;99.90;;;-0.78;83.53;95890.16;10308505;28;1966;-81
2021/03/08 22:31:55;;;;;;;;;;;0.30;99.90;;;-0.78;84.04;95889.34;10297454;28;1969;-80
2021/03/08 22:36:57;;;;;;;;;;;0.30;99.90;;;-0.90;83.95;95886.47;10316205;28;1872;-82
2021/03/08 22:41:59;;;;;;;;;;;0.30;99.90;;;-0.96;84.20;95889.91;10313256;28;2076;-82
2021/03/08 22:47:03;;;;;;;;;;;0.20;99.90;;;-1.04;85.04;95882.19;10300256;28;2058;-80
2021/03/08 22:52:07;;;;;;;;;;;0.20;99.90;;;-1.04;84.96;95884.81;10294883;28;2288;-83
2021/03/08 22:57:08;;;;;;;;;;;0.10;99.90;;;-1.06;85.14;95877.13;10306190;28;1999;-83
2021/03/08 23:02:10;;;;;;;;;;;0.00;99.90;;;-1.06;85.78;95868.38;10288533;28;1995;-82
2021/03/08 23:07:12;;;;;;;;;;;0.10;99.90;;;-0.97;85.65;95867.19;10286365;28;1685;-81
2021/03/08 23:12:14;;;;;;;;;;;0.10;99.90;;;-0.97;85.61;95864.53;10326720;28;1936;-81
2021/03/08 23:17:16;;;;;;;;;;;0.20;99.90;;;-1.02;86.22;95845.84;10331347;28;1909;-80
2021/03/08 23:22:17;;;;;;;;;;;0.10;99.90;;;-1.04;86.28;95842.63;10337699;28;1967;-81
2021/03/08 23:27:22;;;;;;;;;;;0.10;99.90;;;-0.92;85.68;95839.19;10331974;28;1924;-83
2021/03/08 23:32:24;;;;;;;;;;;1.80;99.90;;;-1.02;85.70;95838.75;10296704;28;1966;-82
2021/03/08 23:37:26;;;;;;;;;;;0.20;99.90;;;-1.05;85.55;95841.00;10321939;28;1920;-83
2021/03/08 23:42:28;;;;;;;;;;;0.10;99.90;;;-1.23;86.24;95836.28;10316855;28;1998;-83
2021/03/08 23:47:30;;;;;;;;;;;0.10;99.90;;;-1.31;86.50;95828.53;10328075;28;1979;-83
2021/03/08 23:52:32;;;;;;;;;;;0.00;99.90;;;-1.32;87.15;95821.66;10315122;28;1984;-85
2021/03/08 23:57:34;;;;;;;;;;;-0.10;99.90;;;-1.21;86.80;95829.81;10318769;28;1919;-83
